Time;durP1;ratioP1;P1;durP2;ratioP2;P2;SDS_P1;SDS_P2;PMS_P1;PMS_P2;Temp;Humidity;BMP_temperature;BMP_pressure;BME280_temperature;BME280_humidity;BME280_pressure;Samples;Min_cycle;Max_cycle;Signal;HPM_P1;HPM_P2
2022/11/08 04:55:00;;;;;;;3.60;1.40;;;12.70;99.90;;;;;;6185126;23;20088;-90
2022/11/08 04:57:27;;;;;;;3.00;1.40;;;12.60;99.90;;;;;;6179532;23;20436;-87
2022/11/08 04:59:53;;;;;;;3.75;1.38;;;12.60;99.90;;;;;;6186111;23;20012;-86
2022/11/08 05:02:19;;;;;;;6.03;1.55;;;12.70;99.90;;;;;;6212577;23;20100;-86
2022/11/08 05:04:46;;;;;;;5.88;1.60;;;12.60;99.90;;;;;;6212414;23;20027;-85
2022/11/08 05:07:12;;;;;;;6.93;1.58;;;12.70;99.90;;;;;;6185582;23;20355;-87
2022/11/08 05:09:43;;;;;;;3.85;1.38;;;12.60;99.90;;;;;;6215136;23;20012;-87
2022/11/08 05:12:09;;;;;;;5.65;1.60;;;12.70;99.90;;;;;;6186791;23;20001;-88
2022/11/08 05:14:35;;;;;;;5.22;1.92;;;12.60;99.90;;;;;;6186319;23;20004;-87
2022/11/08 05:17:03;;;;;;;4.90;1.10;;;12.70;99.90;;;;;;6211347;23;20335;-87
2022/11/08 05:24:58;;;;;;;6.78;1.60;;;12.80;99.90;;;;;;6210763;23;20008;-87
2022/11/08 05:27:24;;;;;;;4.18;1.50;;;12.80;99.90;;;;;;6212124;23;20001;-86
2022/11/08 05:29:49;;;;;;;6.85;1.33;;;13.00;99.90;;;;;;6211391;23;20428;-86
2022/11/08 05:32:15;;;;;;;4.70;1.40;;;13.00;99.90;;;;;;6212200;23;20000;-86
2022/11/08 05:34:41;;;;;;;5.82;1.92;;;13.00;99.90;;;;;;6211861;23;20008;-86
2022/11/08 05:37:07;;;;;;;5.43;1.98;;;13.00;99.90;;;;;;6185639;23;20008;-86
2022/11/08 05:39:32;;;;;;;4.75;1.63;;;13.00;99.90;;;;;;6210523;23;20071;-86
2022/11/08 05:41:58;;;;;;;8.05;1.90;;;13.00;99.90;;;;;;6185397;23;20354;-86
2022/11/08 05:48:45;;;;;;;7.65;2.17;;;13.00;99.90;;;;;;6120650;23;20025;-90
2022/11/08 05:51:32;;;;;;;4.50;1.80;;;12.90;99.90;;;;;;6120693;23;20322;-90
2022/11/08 05:54:11;;;;;;;;;;;;;;;;;;;;;
2022/11/08 05:56:50;;;;;;;6.97;1.92;;;12.90;99.90;;;;;;6104543;23;20067;-91
2022/11/08 06:08:02;;;;;;;5.57;2.10;;;12.80;99.90;;;;;;6177603;23;20032;-91
2022/11/08 06:10:34;;;;;;;8.02;2.10;;;12.80;99.90;;;;;;6208179;23;20013;-88
2022/11/08 06:13:00;;;;;;;9.20;2.17;;;12.80;99.90;;;;;;6212027;23;20035;-87
2022/11/08 06:15:26;;;;;;;7.25;1.85;;;12.70;99.90;;;;;;6209784;23;20239;-86
2022/11/08 06:17:51;;;;;;;4.35;1.83;;;12.70;99.90;;;;;;6209926;23;20024;-87
2022/11/08 06:20:17;;;;;;;4.47;1.58;;;12.70;99.90;;;;;;6209627;23;20317;-87
2022/11/08 06:26:34;;;;;;;5.45;1.60;;;12.70;99.90;;;;;;6214489;23;20039;-87
2022/11/08 06:29:08;;;;;;;3.35;1.55;;;12.80;99.90;;;;;;6213792;23;20061;-88
2022/11/08 06:31:34;;;;;;;4.47;1.50;;;12.80;99.90;;;;;;6214341;23;20088;-85
2022/11/08 06:34:00;;;;;;;3.78;1.55;;;12.80;99.90;;;;;;6187680;23;20005;-85
2022/11/08 06:36:26;;;;;;;5.80;2.50;;;12.80;99.90;;;;;;6214261;23;20106;-85
2022/11/08 06:38:55;;;;;;;6.60;2.58;;;12.80;99.90;;;;;;6214416;23;20140;-85
2022/11/08 06:41:21;;;;;;;5.43;1.60;;;12.80;99.90;;;;;;6214202;23;20004;-85
2022/11/08 06:43:47;;;;;;;5.03;1.33;;;12.80;99.90;;;;;;6213854;23;20008;-85
2022/11/08 06:46:14;;;;;;;4.65;1.63;;;12.90;99.90;;;;;;6212508;23;20225;-85
2022/11/08 06:48:50;;;;;;;4.28;1.77;;;12.90;99.90;;;;;;6213736;23;20076;-86
2022/11/08 06:51:17;;;;;;;7.80;1.40;;;12.90;99.90;;;;;;6214491;23;20027;-85
2022/11/08 06:53:43;;;;;;;5.38;1.67;;;12.90;99.90;;;;;;6213350;23;20028;-85
2022/11/08 06:56:09;;;;;;;6.43;1.50;;;12.90;99.90;;;;;;6212787;23;20012;-85
2022/11/08 06:58:35;;;;;;;4.03;1.55;;;12.90;99.90;;;;;;6213113;23;20009;-85
2022/11/08 07:01:05;;;;;;;6.43;1.73;;;12.90;99.90;;;;;;6212885;23;20094;-85
2022/11/08 07:03:32;;;;;;;8.43;3.40;;;12.90;99.90;;;;;;6187727;23;20064;-85
2022/11/08 07:06:01;;;;;;;7.68;3.33;;;13.00;99.90;;;;;;6214345;23;20005;-85
2022/11/08 07:08:27;;;;;;;6.43;2.42;;;12.90;99.90;;;;;;6214352;23;20032;-86
2022/11/08 07:10:53;;;;;;;4.70;2.00;;;13.00;99.90;;;;;;6213914;23;20335;-85
2022/11/08 07:13:19;;;;;;;3.88;1.30;;;13.00;99.90;;;;;;6214666;23;20008;-86
2022/11/08 07:15:46;;;;;;;3.33;1.60;;;13.00;99.90;;;;;;6212568;23;20013;-85
2022/11/08 07:18:14;;;;;;;4.95;2.03;;;13.00;99.90;;;;;;6212584;23;20008;-85
2022/11/08 07:20:41;;;;;;;5.38;2.28;;;13.20;99.90;;;;;;6187817;23;20020;-85
2022/11/08 07:23:10;;;;;;;5.13;1.98;;;13.10;99.90;;;;;;6212464;23;20011;-84
2022/11/08 07:25:36;;;;;;;6.53;1.80;;;13.10;99.90;;;;;;6214733;23;20051;-86
2022/11/08 07:28:04;;;;;;;5.57;1.92;;;13.10;99.90;;;;;;6214937;23;20470;-85
2022/11/08 07:30:31;;;;;;;6.75;1.60;;;13.10;99.90;;;;;;6212454;23;20007;-86
2022/11/08 07:32:57;;;;;;;6.13;1.75;;;13.20;99.90;;;;;;6212099;23;20013;-86
2022/11/08 07:35:24;;;;;;;5.15;1.30;;;13.20;99.90;;;;;;6212586;23;20131;-87
2022/11/08 07:44:23;;;;;;;6.45;2.35;;;13.10;99.90;;;;;;6218358;22;20497;-84
2022/11/08 07:46:49;;;;;;;6.00;1.75;;;13.20;99.90;;;;;;6244640;23;20008;-87
2022/11/08 07:49:21;;;;;;;6.13;1.75;;;13.20;99.90;;;;;;6219114;23;20015;-89
2022/11/08 07:51:46;;;;;;;4.38;1.88;;;13.20;99.90;;;;;;6244734;23;20005;-84
2022/11/08 07:54:12;;;;;;;6.28;2.10;;;13.10;99.90;;;;;;6243733;23;20000;-86
2022/11/08 07:56:38;;;;;;;5.35;1.90;;;13.20;99.90;;;;;;6244277;23;20008;-84
2022/11/08 07:59:03;;;;;;;5.20;1.73;;;13.20;99.90;;;;;;6217557;23;20004;-86
2022/11/08 08:01:29;;;;;;;5.47;1.63;;;13.20;99.90;;;;;;6241489;23;20079;-83
2022/11/08 08:03:55;;;;;;;7.03;1.88;;;13.20;99.90;;;;;;6213328;23;20393;-83
2022/11/08 08:06:22;;;;;;;7.85;2.67;;;13.20;99.90;;;;;;6242237;23;20027;-85
2022/11/08 08:08:47;;;;;;;11.40;2.20;;;13.20;99.90;;;;;;6216044;23;20370;-86
2022/11/08 08:11:14;;;;;;;5.13;1.70;;;13.30;99.90;;;;;;6242042;23;20014;-86
2022/11/08 08:13:40;;;;;;;4.07;1.85;;;13.30;99.90;;;;;;6243167;23;20386;-82
2022/11/08 08:16:06;;;;;;;6.03;1.85;;;13.30;99.90;;;;;;6242571;23;20292;-84
2022/11/08 08:18:32;;;;;;;5.35;1.73;;;13.30;99.90;;;;;;6242489;23;20079;-84
2022/11/08 08:20:58;;;;;;;6.00;1.92;;;13.30;99.90;;;;;;6242122;23;20419;-86
2022/11/08 08:23:24;;;;;;;5.13;1.75;;;13.40;99.90;;;;;;6215905;23;20012;-84
2022/11/08 08:25:50;;;;;;;3.60;1.50;;;13.40;99.90;;;;;;6215569;23;20003;-84
2022/11/08 08:28:15;;;;;;;7.85;1.70;;;13.40;99.90;;;;;;6243638;23;20054;-84
2022/11/08 08:30:41;;;;;;;2.63;1.40;;;13.40;99.90;;;;;;6242543;23;19996;-88
2022/11/08 08:33:14;;;;;;;3.53;1.45;;;13.40;99.90;;;;;;6216397;23;20012;-87
2022/11/08 08:35:45;;;;;;;4.47;1.27;;;13.40;99.90;;;;;;6242413;23;20004;-85
2022/11/08 08:38:12;;;;;;;5.05;1.73;;;13.40;99.90;;;;;;6243469;23;20014;-84
2022/11/08 08:40:38;;;;;;;3.85;1.35;;;13.40;99.90;;;;;;6216652;23;20008;-85
2022/11/08 08:43:04;;;;;;;6.78;1.80;;;13.40;99.90;;;;;;6244000;23;20011;-87
2022/11/08 08:45:34;;;;;;;4.80;1.45;;;13.50;99.90;;;;;;6211053;23;20348;-84
2022/11/08 08:48:00;;;;;;;5.07;1.92;;;13.40;99.90;;;;;;6212550;23;20007;-85
2022/11/08 08:50:28;;;;;;;4.25;1.50;;;13.50;99.90;;;;;;6212569;23;20004;-84
2022/11/08 08:53:02;;;;;;;5.97;1.42;;;13.50;99.90;;;;;;6185601;23;20070;-84
2022/11/08 08:55:28;;;;;;;4.97;1.45;;;13.50;99.90;;;;;;6210744;23;20059;-84
2022/11/08 08:57:54;;;;;;;4.88;1.33;;;13.50;99.90;;;;;;6210586;23;20015;-84
2022/11/08 09:00:21;;;;;;;3.58;1.30;;;13.50;99.90;;;;;;6212619;23;20005;-84
2022/11/08 09:02:46;;;;;;;5.93;1.50;;;13.60;99.90;;;;;;6211811;23;20339;-84
2022/11/08 09:05:13;;;;;;;6.85;1.70;;;13.60;99.90;;;;;;6211103;23;20004;-84
2022/11/08 09:07:39;;;;;;;3.00;1.13;;;13.60;99.90;;;;;;6211522;23;20003;-84
2022/11/08 09:24:08;;;;;;;;;;;;;;;;;;;;;
2022/11/08 09:40:25;;;;;;;3.78;1.77;;;13.80;99.90;;;;;;6243869;23;20007;-89
2022/11/08 10:00:25;;;;;;;5.32;1.65;;;14.00;99.90;;;;;;6220131;22;20043;-89
2022/11/08 10:02:51;;;;;;;3.35;1.60;;;14.00;99.90;;;;;;6159023;23;20013;-86
2022/11/08 10:05:19;;;;;;;3.70;1.55;;;14.00;99.90;;;;;;6183817;23;20009;-86
2022/11/08 10:08:06;;;;;;;4.65;1.50;;;14.00;99.90;;;;;;6183304;23;20488;-87
2022/11/08 10:10:47;;;;;;;6.07;1.50;;;14.00;99.90;;;;;;6182617;23;20055;-86
2022/11/08 10:13:25;;;;;;;4.70;1.73;;;14.00;99.90;;;;;;6156661;23;20017;-87
2022/11/08 10:16:06;;;;;;;8.35;2.67;;;14.00;99.90;;;;;;6182757;23;20044;-87
2022/11/08 10:18:54;;;;;;;5.00;1.95;;;14.00;99.90;;;;;;6182654;23;20389;-87
2022/11/08 10:21:41;;;;;;;6.82;2.08;;;14.00;99.90;;;;;;6184031;23;20011;-86
2022/11/08 10:24:41;;;;;;;4.47;1.60;;;14.00;99.90;;;;;;6184252;23;20012;-86
2022/11/08 10:27:39;;;;;;;4.35;1.80;;;14.10;99.90;;;;;;6157725;23;20436;-86
2022/11/08 10:30:32;;;;;;;3.72;1.70;;;14.10;99.90;;;;;;6184103;23;20011;-86
2022/11/08 10:32:58;;;;;;;2.88;1.35;;;14.10;99.90;;;;;;6172148;23;20009;-86
2022/11/08 10:35:44;;;;;;;5.15;1.50;;;14.10;99.90;;;;;;6184140;23;20383;-86
2022/11/08 10:38:20;;;;;;;4.68;1.60;;;14.10;99.90;;;;;;6184214;23;20009;-86
2022/11/08 10:41:28;;;;;;;5.50;1.55;;;14.10;99.90;;;;;;6183898;23;20009;-86
2022/11/08 10:44:16;;;;;;;2.85;1.50;;;14.20;99.90;;;;;;6141778;23;20024;-86
2022/11/08 10:46:49;;;;;;;4.38;1.70;;;14.20;99.90;;;;;;6184016;23;20112;-86
2022/11/08 10:49:19;;;;;;;3.92;1.35;;;14.20;99.90;;;;;;6184325;23;20020;-86
2022/11/08 10:51:48;;;;;;;5.25;1.58;;;14.20;99.90;;;;;;6184015;23;20015;-86
2022/11/08 10:54:39;;;;;;;4.40;1.60;;;14.30;99.90;;;;;;6184045;23;19997;-86
2022/11/08 10:57:05;;;;;;;3.22;1.60;;;14.30;99.90;;;;;;6183725;23;20448;-86
2022/11/08 10:59:32;;;;;;;5.40;1.80;;;14.30;99.90;;;;;;6195060;23;20024;-86
2022/11/08 11:01:58;;;;;;;4.05;1.50;;;14.30;99.90;;;;;;6182646;23;20009;-86
2022/11/08 11:04:30;;;;;;;11.73;1.65;;;14.30;99.90;;;;;;6182495;23;20396;-86
2022/11/08 11:07:32;;;;;;;7.63;1.80;;;14.30;99.90;;;;;;6207145;23;20001;-86
2022/11/08 11:10:22;;;;;;;5.50;1.42;;;14.40;99.90;;;;;;6173328;23;20424;-86
2022/11/08 11:13:05;;;;;;;5.65;1.67;;;14.40;99.90;;;;;;6184188;23;20092;-86
2022/11/08 11:15:44;;;;;;;6.20;1.75;;;14.40;99.90;;;;;;6183766;23;20009;-86
2022/11/08 11:18:31;;;;;;;5.53;1.50;;;14.40;99.90;;;;;;6183882;23;20081;-86
2022/11/08 11:21:04;;;;;;;4.68;1.50;;;14.40;99.90;;;;;;6183740;23;20002;-86
2022/11/08 11:23:39;;;;;;;4.72;1.60;;;14.50;99.90;;;;;;6183746;23;20023;-86
2022/11/08 11:26:07;;;;;;;5.82;1.45;;;14.50;99.90;;;;;;6183493;23;20001;-86
2022/11/08 11:28:34;;;;;;;6.10;1.65;;;14.50;99.90;;;;;;6157566;23;20001;-86
2022/11/08 11:31:04;;;;;;;2.83;1.30;;;14.50;99.90;;;;;;6183612;23;20428;-86
2022/11/08 11:33:32;;;;;;;5.82;1.92;;;14.50;99.90;;;;;;6182353;23;20218;-86
2022/11/08 11:36:06;;;;;;;4.00;1.60;;;14.60;99.90;;;;;;6183598;23;20013;-86
2022/11/08 11:38:59;;;;;;;5.30;2.00;;;14.60;99.90;;;;;;6183415;23;20036;-86
2022/11/08 11:41:49;;;;;;;4.55;1.52;;;14.70;99.90;;;;;;6183656;23;20013;-86
2022/11/08 11:44:27;;;;;;;3.88;1.60;;;14.70;99.90;;;;;;6183811;23;20005;-86
2022/11/08 11:47:17;;;;;;;4.15;1.92;;;14.80;99.90;;;;;;6183381;23;20013;-86
2022/11/08 11:49:45;;;;;;;3.83;1.55;;;14.80;99.90;;;;;;6181564;23;20084;-86
2022/11/08 11:52:17;;;;;;;5.10;1.67;;;14.90;99.90;;;;;;6181885;23;20009;-86
2022/11/08 11:54:46;;;;;;;4.78;1.60;;;14.90;99.90;;;;;;6183765;23;20075;-86
2022/11/08 11:57:30;;;;;;;5.30;1.83;;;14.90;99.90;;;;;;6183727;23;20004;-86
2022/11/08 12:00:12;;;;;;;5.60;2.40;;;14.90;99.90;;;;;;6206217;23;20012;-86
2022/11/08 12:03:07;;;;;;;5.22;1.60;;;14.90;99.90;;;;;;6213623;23;20059;-86
2022/11/08 12:05:54;;;;;;;6.28;2.13;;;14.90;99.90;;;;;;6213357;23;20009;-86
2022/11/08 12:08:45;;;;;;;3.60;1.67;;;14.90;99.90;;;;;;6213409;23;20028;-86
2022/11/08 12:11:20;;;;;;;8.50;1.90;;;14.90;99.90;;;;;;6187043;23;20000;-86
2022/11/08 12:13:57;;;;;;;3.85;1.42;;;14.90;99.90;;;;;;6213360;23;20013;-86
2022/11/08 12:16:38;;;;;;;7.00;1.90;;;14.90;99.90;;;;;;6162064;23;20067;-86
2022/11/08 12:19:22;;;;;;;5.22;2.08;;;15.00;99.90;;;;;;6186595;23;20008;-86
2022/11/08 12:21:54;;;;;;;4.03;1.83;;;15.10;99.90;;;;;;6186626;23;20455;-86
2022/11/08 12:24:19;;;;;;;5.25;1.75;;;15.10;99.90;;;;;;6213425;23;20088;-86
2022/11/08 12:27:08;;;;;;;4.38;1.70;;;15.10;99.90;;;;;;6186284;23;20043;-86
2022/11/08 12:30:03;;;;;;;4.10;1.70;;;15.20;99.90;;;;;;6213305;23;20004;-86
2022/11/08 12:33:13;;;;;;;6.35;1.73;;;15.20;99.90;;;;;;6210187;23;20082;-86
2022/11/08 12:36:02;;;;;;;7.25;1.70;;;15.30;99.90;;;;;;6213056;23;20028;-86
2022/11/08 12:38:46;;;;;;;4.97;1.80;;;15.40;99.90;;;;;;6213032;23;20000;-86
2022/11/08 12:41:44;;;;;;;4.30;1.75;;;15.40;99.90;;;;;;6213102;23;20336;-86
2022/11/08 12:44:27;;;;;;;7.30;2.25;;;15.40;99.90;;;;;;6213008;23;20047;-86
2022/11/08 12:47:30;;;;;;;8.18;2.10;;;15.40;99.90;;;;;;6211216;23;20012;-86
2022/11/08 12:50:23;;;;;;;5.65;1.90;;;15.30;99.90;;;;;;6186636;23;20005;-86
2022/11/08 12:53:23;;;;;;;4.22;1.95;;;15.40;99.90;;;;;;6162345;23;20012;-86
2022/11/08 12:55:56;;;;;;;4.93;1.90;;;15.40;99.90;;;;;;6214214;23;20079;-86
2022/11/08 12:58:46;;;;;;;4.90;2.03;;;15.40;99.90;;;;;;6187367;23;20083;-86
2022/11/08 13:01:17;;;;;;;5.63;1.90;;;15.30;99.90;;;;;;6186927;23;20015;-85
2022/11/08 13:03:56;;;;;;;4.60;1.80;;;15.30;99.90;;;;;;6214924;23;20371;-86
2022/11/08 13:06:37;;;;;;;6.05;2.20;;;15.30;99.90;;;;;;6214214;23;20335;-86
2022/11/08 13:09:33;;;;;;;6.43;2.40;;;15.30;99.90;;;;;;6186262;23;20009;-85
2022/11/08 13:12:27;;;;;;;5.30;2.20;;;15.30;99.90;;;;;;6186390;23;20056;-86
2022/11/08 13:14:53;;;;;;;5.38;2.03;;;15.30;99.90;;;;;;6212809;23;20511;-85
2022/11/08 13:17:25;;;;;;;6.07;1.58;;;15.30;99.90;;;;;;6185896;23;20052;-86
2022/11/08 13:20:06;;;;;;;6.93;1.80;;;15.30;99.90;;;;;;6212671;23;20027;-85
2022/11/08 13:22:32;;;;;;;6.47;2.13;;;15.30;99.90;;;;;;6212592;23;20009;-85
2022/11/08 13:25:25;;;;;;;4.78;1.92;;;15.40;99.90;;;;;;6212745;23;20004;-85
2022/11/08 13:27:51;;;;;;;5.85;1.73;;;15.40;99.90;;;;;;6196079;23;20012;-85
2022/11/08 13:30:17;;;;;;;6.22;2.00;;;15.40;99.90;;;;;;6212414;23;20005;-85
2022/11/08 13:32:49;;;;;;;4.70;1.60;;;15.30;99.90;;;;;;6186172;23;20339;-85
2022/11/08 13:35:30;;;;;;;8.80;2.20;;;15.30;99.90;;;;;;6212760;23;20008;-85
2022/11/08 13:38:14;;;;;;;3.83;1.60;;;15.30;99.90;;;;;;6212370;23;20008;-85
2022/11/08 13:41:06;;;;;;;5.28;1.77;;;15.30;99.90;;;;;;6185847;23;20014;-86
2022/11/08 13:43:33;;;;;;;6.22;2.20;;;15.30;99.90;;;;;;6212719;23;20008;-85
2022/11/08 13:46:24;;;;;;;6.97;2.10;;;15.30;99.90;;;;;;6185790;23;20012;-85
2022/11/08 13:49:23;;;;;;;5.32;1.58;;;15.30;99.90;;;;;;6199477;23;20032;-85
2022/11/08 13:52:27;;;;;;;6.22;2.10;;;15.30;99.90;;;;;;6211993;23;20016;-85
2022/11/08 13:54:52;;;;;;;4.72;1.60;;;15.20;99.90;;;;;;6185925;23;20051;-85
2022/11/08 13:57:39;;;;;;;5.07;1.60;;;15.30;99.90;;;;;;6185714;23;20471;-85
2022/11/08 14:00:28;;;;;;;5.20;1.80;;;15.30;99.90;;;;;;6211694;23;20062;-86
2022/11/08 14:02:54;;;;;;;;;;;15.30;99.90;;;;;;6213134;23;20331;-85
2022/11/08 14:05:23;;;;;;;3.88;2.17;;;15.20;99.90;;;;;;6186288;23;19900;-85
2022/11/08 14:08:11;;;;;;;4.13;1.92;;;15.30;99.90;;;;;;6212728;23;20004;-85
2022/11/08 14:10:56;;;;;;;6.38;2.05;;;15.20;99.90;;;;;;6212495;23;20071;-85
2022/11/08 14:13:36;;;;;;;5.65;2.65;;;15.20;99.90;;;;;;6212604;23;20443;-85
2022/11/08 14:16:14;;;;;;;3.90;1.90;;;15.20;99.90;;;;;;6212404;23;20009;-85
2022/11/08 14:18:40;;;;;;;4.75;1.70;;;15.20;99.90;;;;;;6212883;23;20386;-85
2022/11/08 14:21:06;;;;;;;4.25;1.85;;;15.20;99.90;;;;;;6212265;23;20029;-85
2022/11/08 14:23:39;;;;;;;5.32;2.03;;;15.20;99.90;;;;;;6212506;23;20009;-85
2022/11/08 14:26:11;;;;;;;3.97;1.83;;;15.20;99.90;;;;;;6212540;23;20005;-86
2022/11/08 14:28:42;;;;;;;3.22;1.67;;;15.20;99.90;;;;;;6212192;23;20004;-86
2022/11/08 14:31:29;;;;;;;5.93;1.92;;;15.20;99.90;;;;;;6212717;23;19996;-85
2022/11/08 14:33:56;;;;;;;3.80;1.80;;;15.20;99.90;;;;;;6212747;23;20019;-85
2022/11/08 14:36:24;;;;;;;4.88;2.10;;;15.20;99.90;;;;;;6212677;23;20013;-85
2022/11/08 14:39:14;;;;;;;6.43;2.20;;;15.20;99.90;;;;;;6185808;23;20055;-85
2022/11/08 14:41:45;;;;;;;5.57;1.90;;;15.20;99.90;;;;;;6186634;23;20062;-85
2022/11/08 14:44:14;;;;;;;5.25;1.90;;;15.20;99.90;;;;;;6214240;23;20103;-85
2022/11/08 14:46:40;;;;;;;4.18;1.73;;;15.20;99.90;;;;;;6214044;23;20027;-85
2022/11/08 14:49:12;;;;;;;4.32;1.80;;;15.10;99.90;;;;;;6213939;23;20050;-85
2022/11/08 14:51:41;;;;;;;6.97;2.15;;;15.10;99.90;;;;;;6214105;23;20005;-85
2022/11/08 14:54:25;;;;;;;5.07;2.00;;;15.10;99.90;;;;;;6187927;23;20013;-85
2022/11/08 14:56:51;;;;;;;4.68;1.92;;;15.10;99.90;;;;;;6187378;23;20087;-86
2022/11/08 14:59:17;;;;;;;4.60;2.10;;;15.10;99.90;;;;;;6182229;23;20019;-86
2022/11/08 15:01:46;;;;;;;5.03;2.10;;;15.00;99.90;;;;;;6183618;23;20009;-86
2022/11/08 15:04:22;;;;;;;;;;;15.00;99.90;;;;;;6184528;23;20016;-86
2022/11/08 15:06:52;;;;;;;6.72;2.60;;;15.00;99.90;;;;;;6183588;23;19911;-85
2022/11/08 15:09:26;;;;;;;4.25;1.80;;;15.00;99.90;;;;;;6207761;23;20013;-85
2022/11/08 15:11:55;;;;;;;5.20;2.42;;;15.00;99.90;;;;;;6212011;22;20020;-85
2022/11/08 15:14:22;;;;;;;;;;;14.90;99.90;;;;;;6244889;23;20323;-85
2022/11/08 15:16:51;;;;;;;4.57;2.00;;;14.90;99.90;;;;;;6243953;23;19908;-85
2022/11/08 15:19:41;;;;;;;8.07;2.35;;;14.90;99.90;;;;;;6244167;23;20011;-84
2022/11/08 15:22:32;;;;;;;6.25;2.10;;;14.90;99.90;;;;;;6231818;23;20078;-85
2022/11/08 15:25:13;;;;;;;4.43;2.00;;;14.90;99.90;;;;;;6244324;22;20015;-85
2022/11/08 15:27:49;;;;;;;4.57;1.92;;;14.90;99.90;;;;;;6243976;22;20008;-84
2022/11/08 15:30:18;;;;;;;5.50;2.03;;;14.90;99.90;;;;;;6243918;23;20028;-84
2022/11/08 15:32:44;;;;;;;5.75;2.10;;;14.80;99.90;;;;;;6242505;23;20007;-85
2022/11/08 15:35:33;;;;;;;7.20;2.03;;;14.80;99.90;;;;;;6244420;23;20078;-84
2022/11/08 15:38:25;;;;;;;5.15;1.90;;;14.80;99.90;;;;;;6244887;23;20015;-84
2022/11/08 15:40:54;;;;;;;3.80;1.52;;;14.80;99.90;;;;;;6235309;23;20035;-85
2022/11/08 15:43:39;;;;;;;4.70;2.08;;;14.80;99.90;;;;;;6242958;23;20015;-87
2022/11/08 16:15:01;;;;;;;6.93;1.58;;;14.80;99.90;;;;;;6241800;22;20553;-90
2022/11/08 16:27:03;;;;;;;;;;;;;;;;;;;;;
2022/11/08 16:46:51;;;;;;;3.90;1.80;;;15.00;99.90;;;;;;6208153;22;20055;-87
2022/11/08 19:11:35;;;;;;;4.20;2.08;;;15.10;99.90;;;;;;6197956;22;20020;-87
2022/11/08 19:17:56;;;;;;;7.05;2.35;;;15.10;99.90;;;;;;6216314;23;20015;-86
2022/11/08 19:31:05;;;;;;;5.60;2.10;;;15.30;99.90;;;;;;6243771;23;20051;-87
2022/11/08 21:13:08;;;;;;;10.30;5.10;;;15.00;99.90;;;;;;6235988;22;20039;-83
2022/11/08 21:15:33;;;;;;;6.65;3.20;;;14.90;99.90;;;;;;6242207;23;20004;-85
2022/11/08 21:17:59;;;;;;;5.75;2.05;;;14.90;99.90;;;;;;6242938;23;20027;-85
2022/11/08 21:20:25;;;;;;;5.78;2.03;;;14.90;99.90;;;;;;6241572;23;20019;-85
2022/11/08 21:22:51;;;;;;;4.78;2.10;;;14.90;99.90;;;;;;6243374;23;20066;-85
2022/11/08 21:25:17;;;;;;;4.93;2.88;;;14.90;99.90;;;;;;6243314;23;20005;-85
2022/11/08 21:27:42;;;;;;;15.25;7.63;;;14.90;99.90;;;;;;6243254;22;20007;-85
2022/11/08 21:30:09;;;;;;;15.68;6.47;;;14.80;99.90;;;;;;6243320;23;20004;-85
2022/11/08 21:32:34;;;;;;;7.30;3.05;;;14.90;99.90;;;;;;6243357;23;20028;-85
2022/11/08 21:35:00;;;;;;;8.48;4.65;;;14.90;99.90;;;;;;6243087;22;20062;-85
2022/11/08 21:37:26;;;;;;;11.70;5.65;;;14.90;99.90;;;;;;6241676;23;20019;-85
2022/11/08 21:39:52;;;;;;;4.82;2.08;;;14.80;99.90;;;;;;6242947;23;20035;-85
2022/11/08 21:42:17;;;;;;;5.95;2.22;;;14.90;99.90;;;;;;6243728;22;20370;-85
2022/11/08 21:44:43;;;;;;;4.28;1.83;;;14.90;99.90;;;;;;6242071;23;20452;-85
2022/11/08 21:47:09;;;;;;;4.40;1.60;;;14.90;99.90;;;;;;6243557;23;20445;-85
2022/11/08 21:49:35;;;;;;;3.55;1.70;;;14.90;99.90;;;;;;6242882;23;20419;-85
2022/11/08 21:52:02;;;;;;;4.53;1.90;;;14.90;99.90;;;;;;6244616;23;20007;-85
2022/11/08 21:54:28;;;;;;;3.47;1.50;;;14.90;99.90;;;;;;6243764;23;20012;-85
2022/11/08 21:56:53;;;;;;;4.32;1.80;;;14.90;99.90;;;;;;6245307;22;20449;-85
2022/11/08 21:59:19;;;;;;;5.63;2.05;;;14.90;99.90;;;;;;6243630;23;20015;-85
2022/11/08 22:01:45;;;;;;;4.43;1.65;;;14.90;99.90;;;;;;6245208;23;20008;-85
2022/11/08 22:04:11;;;;;;;4.10;1.60;;;14.90;99.90;;;;;;6245285;23;20031;-85
2022/11/08 22:06:36;;;;;;;5.78;2.00;;;14.90;99.90;;;;;;6245434;23;20008;-86
2022/11/08 22:09:02;;;;;;;6.30;1.75;;;14.90;99.90;;;;;;6245144;23;20004;-85
2022/11/08 22:11:28;;;;;;;3.63;1.52;;;14.90;99.90;;;;;;6242917;23;20008;-86
2022/11/08 22:13:54;;;;;;;4.47;1.70;;;14.90;99.90;;;;;;6245599;23;20004;-85
2022/11/08 22:16:20;;;;;;;3.75;1.50;;;14.90;99.90;;;;;;6245005;23;20042;-86
2022/11/08 22:18:45;;;;;;;3.67;1.63;;;14.90;99.90;;;;;;6245044;22;20016;-85
2022/11/08 22:23:55;;;;;;;3.05;1.60;;;14.90;99.90;;;;;;6245280;23;20008;-85
2022/11/08 22:26:21;;;;;;;2.92;1.77;;;14.90;99.90;;;;;;6244966;23;20496;-85
2022/11/08 22:28:47;;;;;;;3.78;1.73;;;14.90;99.90;;;;;;6245175;23;20012;-85
2022/11/08 22:31:13;;;;;;;7.35;2.22;;;14.90;99.90;;;;;;6244917;23;20031;-85
2022/11/08 22:33:38;;;;;;;4.07;1.70;;;14.90;99.90;;;;;;6245422;23;20008;-86
2022/11/08 22:36:04;;;;;;;4.03;1.88;;;14.90;99.90;;;;;;6244820;23;20063;-86
2022/11/08 22:38:30;;;;;;;2.42;1.52;;;14.90;99.90;;;;;;6245008;23;20450;-85
2022/11/08 22:40:56;;;;;;;5.15;1.70;;;14.90;99.90;;;;;;6244971;22;20065;-85
2022/11/08 22:43:22;;;;;;;3.20;1.60;;;14.90;99.90;;;;;;6244759;23;20004;-85
2022/11/08 22:45:48;;;;;;;5.22;1.80;;;14.90;99.90;;;;;;6243559;23;20004;-86
2022/11/08 22:48:13;;;;;;;4.47;1.65;;;14.90;99.90;;;;;;6243301;23;20010;-85
2022/11/08 22:50:39;;;;;;;3.92;1.60;;;14.90;99.90;;;;;;6244657;23;20000;-85
2022/11/08 22:53:05;;;;;;;3.78;1.40;;;14.90;99.90;;;;;;6244780;23;20004;-85
2022/11/08 22:55:31;;;;;;;5.00;1.63;;;14.90;99.90;;;;;;6244818;23;20331;-86
2022/11/08 22:57:57;;;;;;;5.13;1.90;;;14.90;99.90;;;;;;6244908;23;20008;-85
2022/11/08 23:00:22;;;;;;;3.83;1.50;;;14.90;99.90;;;;;;6244539;23;20103;-83
2022/11/08 23:02:48;;;;;;;3.80;1.77;;;15.00;99.90;;;;;;6244236;23;20012;-84
2022/11/08 23:05:14;;;;;;;2.97;1.50;;;14.90;99.90;;;;;;6244776;23;20331;-83
2022/11/08 23:07:40;;;;;;;3.10;1.60;;;14.90;99.90;;;;;;6244625;23;20008;-83
2022/11/08 23:10:06;;;;;;;4.50;1.85;;;14.90;99.90;;;;;;6244433;22;20004;-83
2022/11/08 23:18:00;;;;;;;4.47;2.10;;;14.90;99.90;;;;;;6244806;23;20391;-83
2022/11/08 23:25:55;;;;;;;10.65;6.22;;;14.90;99.90;;;;;;6244474;23;20000;-83
2022/11/08 23:33:55;;;;;;;4.68;2.42;;;14.90;99.90;;;;;;6244611;23;20074;-83
2022/11/08 23:36:21;;;;;;;5.93;2.05;;;14.90;99.90;;;;;;6242831;23;20430;-83
2022/11/08 23:38:47;;;;;;;3.95;1.42;;;14.90;99.90;;;;;;6244640;23;20008;-83
2022/11/08 23:46:43;;;;;;;3.47;1.52;;;14.90;99.90;;;;;;6244046;23;20090;-83
2022/11/08 23:49:09;;;;;;;3.67;1.63;;;14.90;99.90;;;;;;6244250;23;20032;-83
2022/11/08 23:51:35;;;;;;;2.47;1.70;;;14.90;99.90;;;;;;6244104;23;20430;-83
2022/11/08 23:54:01;;;;;;;4.40;1.50;;;14.80;99.90;;;;;;6244266;23;20004;-83
2022/11/08 23:56:27;;;;;;;2.95;1.23;;;14.80;99.90;;;;;;6244003;23;20008;-83
2022/11/08 23:58:56;;;;;;;7.32;1.60;;;14.80;99.90;;;;;;6244067;23;20012;-83
